Time;durP1;ratioP1;P1;durP2;ratioP2;P2;SDS_P1;SDS_P2;PMS_P1;PMS_P2;Temp;Humidity;BMP_temperature;BMP_pressure;BME280_temperature;BME280_humidity;BME280_pressure;Samples;Min_cycle;Max_cycle;Signal;HPM_P1;HPM_P2
2023/05/31 00:01:13;;;;;;;6.03;4.18;;;19.60;63.50;;;;;;5092113;28;20056;-56
2023/05/31 00:03:43;;;;;;;4.65;3.38;;;19.60;63.30;;;;;;5089466;28;20028;-54
2023/05/31 00:06:12;;;;;;;4.45;3.08;;;19.60;63.10;;;;;;5092420;28;20560;-54
2023/05/31 00:08:38;;;;;;;4.53;3.40;;;19.60;63.10;;;;;;5085802;28;20471;-57
2023/05/31 00:11:05;;;;;;;3.47;3.17;;;19.50;63.00;;;;;;5089169;28;20471;-56
2023/05/31 00:13:31;;;;;;;4.45;3.72;;;19.50;63.10;;;;;;5088492;28;20039;-56
2023/05/31 00:15:57;;;;;;;4.78;3.08;;;19.50;63.00;;;;;;5091641;28;21685;-57
2023/05/31 00:18:23;;;;;;;4.47;3.67;;;19.50;63.10;;;;;;5089153;28;20474;-57
2023/05/31 00:20:49;;;;;;;4.75;3.00;;;19.50;63.10;;;;;;5089660;28;20496;-57
2023/05/31 00:23:15;;;;;;;6.70;3.42;;;19.50;63.40;;;;;;5091308;28;20074;-53
2023/05/31 00:25:41;;;;;;;3.75;3.00;;;19.40;63.30;;;;;;5091420;28;20526;-55
2023/05/31 00:28:06;;;;;;;5.10;3.75;;;19.40;63.30;;;;;;5085886;28;20064;-54
2023/05/31 00:30:32;;;;;;;4.22;3.63;;;19.40;63.30;;;;;;5091825;28;20025;-56
2023/05/31 00:32:58;;;;;;;3.88;3.40;;;19.40;63.60;;;;;;5091731;28;20020;-56
2023/05/31 00:35:24;;;;;;;5.75;3.40;;;19.30;63.80;;;;;;5087145;28;20036;-57
2023/05/31 00:37:49;;;;;;;4.20;3.45;;;19.30;63.80;;;;;;5090495;28;20402;-57
2023/05/31 00:40:15;;;;;;;4.18;3.63;;;19.20;63.80;;;;;;5090745;28;20028;-56
2023/05/31 00:42:40;;;;;;;4.70;2.90;;;19.20;63.80;;;;;;5090561;28;20914;-56
2023/05/31 00:45:07;;;;;;;6.25;3.08;;;19.20;64.50;;;;;;5089110;28;20042;-56
2023/05/31 00:47:34;;;;;;;4.18;3.08;;;19.20;64.00;;;;;;5090347;28;20066;-55
2023/05/31 00:50:00;;;;;;;4.72;3.53;;;19.20;63.80;;;;;;5089441;28;20077;-56
2023/05/31 00:52:27;;;;;;;6.53;3.63;;;19.20;63.70;;;;;;5089919;28;20120;-55
2023/05/31 00:54:53;;;;;;;8.32;3.53;;;19.10;63.60;;;;;;5081947;28;20067;-56
2023/05/31 00:57:19;;;;;;;4.70;2.70;;;19.10;63.40;;;;;;5090638;28;20060;-57
2023/05/31 00:59:45;;;;;;;4.90;2.80;;;19.10;63.30;;;;;;5089003;28;20621;-55
2023/05/31 01:02:14;;;;;;;6.72;3.03;;;19.00;63.10;;;;;;5093686;28;20035;-57
2023/05/31 01:04:39;;;;;;;5.10;3.38;;;19.00;63.00;;;;;;5088648;28;20032;-57
2023/05/31 01:07:08;;;;;;;4.65;3.50;;;19.00;62.90;;;;;;5091186;28;20047;-54
2023/05/31 01:09:35;;;;;;;4.38;3.70;;;18.90;62.70;;;;;;5090723;28;20051;-55
2023/05/31 01:12:21;;;;;;;4.63;3.00;;;18.90;62.60;;;;;;5090720;28;20027;-56
2023/05/31 01:15:08;;;;;;;5.28;3.58;;;18.90;62.40;;;;;;5086583;28;20032;-55
2023/05/31 01:18:00;;;;;;;5.93;3.60;;;18.80;62.40;;;;;;5090097;28;20028;-56
2023/05/31 01:20:34;;;;;;;3.85;3.25;;;18.80;62.50;;;;;;5080747;28;20020;-57
2023/05/31 01:23:43;;;;;;;4.82;3.60;;;18.70;62.40;;;;;;5089706;28;20570;-57
2023/05/31 01:26:18;;;;;;;3.33;2.90;;;18.70;62.20;;;;;;5089694;28;20539;-57
2023/05/31 01:28:49;;;;;;;5.78;3.47;;;18.60;62.20;;;;;;5089939;28;20032;-54
2023/05/31 01:31:19;;;;;;;5.65;3.45;;;18.60;62.00;;;;;;5090117;28;20048;-53
2023/05/31 01:33:46;;;;;;;5.00;3.40;;;18.50;61.90;;;;;;5089150;28;20031;-57
2023/05/31 01:36:11;;;;;;;4.32;3.20;;;18.50;61.70;;;;;;5083213;28;20028;-56
2023/05/31 01:38:37;;;;;;;4.88;3.25;;;18.50;61.70;;;;;;5090158;28;20097;-54
2023/05/31 01:41:06;;;;;;;5.40;3.45;;;18.50;61.80;;;;;;5088748;28;20503;-55
2023/05/31 01:43:33;;;;;;;4.90;3.45;;;18.50;61.90;;;;;;5089535;28;20038;-55
2023/05/31 01:46:00;;;;;;;5.80;3.30;;;18.50;61.90;;;;;;5089461;28;20546;-55
2023/05/31 01:48:28;;;;;;;5.97;3.70;;;18.50;61.90;;;;;;5090455;28;20106;-55
2023/05/31 01:50:56;;;;;;;5.53;3.70;;;18.40;61.80;;;;;;5089447;28;20036;-53
2023/05/31 01:53:21;;;;;;;7.53;3.58;;;18.40;61.70;;;;;;5087852;28;20104;-54
2023/05/31 01:55:47;;;;;;;5.85;3.80;;;18.40;61.70;;;;;;5089402;28;20792;-54
2023/05/31 01:58:15;;;;;;;4.93;3.83;;;18.40;61.90;;;;;;5095933;28;20081;-54
2023/05/31 02:00:41;;;;;;;5.45;3.53;;;18.40;62.00;;;;;;5089265;28;20024;-55
2023/05/31 02:03:08;;;;;;;5.07;3.45;;;18.40;62.10;;;;;;5087975;28;20031;-56
2023/05/31 02:05:33;;;;;;;5.53;3.40;;;18.40;62.40;;;;;;5089898;28;20429;-55
2023/05/31 02:07:59;;;;;;;5.68;4.00;;;18.40;62.80;;;;;;5084327;28;20028;-53
2023/05/31 02:10:25;;;;;;;5.30;3.95;;;18.40;62.90;;;;;;5082050;28;20027;-55
2023/05/31 02:12:53;;;;;;;6.15;3.45;;;18.40;63.10;;;;;;5089323;28;20055;-55
2023/05/31 02:15:19;;;;;;;7.45;3.72;;;18.40;63.20;;;;;;5090107;28;20028;-55
2023/05/31 02:17:46;;;;;;;4.50;3.58;;;18.40;63.50;;;;;;5089101;28;20024;-54
2023/05/31 02:20:15;;;;;;;7.78;4.00;;;18.50;63.70;;;;;;5089280;28;20024;-55
2023/05/31 02:22:44;;;;;;;7.70;3.80;;;18.50;63.80;;;;;;5089338;28;20592;-56
2023/05/31 02:25:11;;;;;;;5.18;3.67;;;18.50;64.10;;;;;;5089720;28;20028;-54
2023/05/31 02:27:38;;;;;;;4.80;3.33;;;18.50;64.30;;;;;;5084064;28;20121;-51
2023/05/31 02:30:05;;;;;;;4.90;3.70;;;18.50;64.40;;;;;;5089871;28;20148;-56
2023/05/31 02:32:35;;;;;;;8.73;3.72;;;18.50;64.40;;;;;;5089419;28;20471;-55
2023/05/31 02:35:03;;;;;;;5.35;3.78;;;18.60;64.50;;;;;;5089873;28;20028;-54
2023/05/31 02:37:29;;;;;;;4.95;3.70;;;18.60;64.60;;;;;;5089584;28;20042;-52
2023/05/31 02:39:55;;;;;;;5.22;4.03;;;18.60;64.80;;;;;;5088979;28;20471;-52
2023/05/31 02:42:21;;;;;;;6.68;3.72;;;18.60;65.00;;;;;;5085639;28;20048;-56
2023/05/31 02:44:46;;;;;;;5.30;3.95;;;18.60;65.20;;;;;;5088696;28;20058;-55
2023/05/31 02:47:12;;;;;;;6.88;4.15;;;18.70;65.30;;;;;;5088892;28;20028;-56
2023/05/31 02:49:38;;;;;;;6.50;4.00;;;18.70;65.50;;;;;;5088602;28;20031;-55
2023/05/31 02:52:04;;;;;;;4.88;3.67;;;18.70;65.70;;;;;;5089477;28;20032;-54
2023/05/31 02:54:29;;;;;;;6.07;4.38;;;18.70;65.70;;;;;;5078476;28;20119;-54
2023/05/31 02:56:55;;;;;;;4.75;3.85;;;18.80;65.80;;;;;;5085916;28;20024;-53
2023/05/31 02:59:20;;;;;;;6.35;4.05;;;18.80;65.90;;;;;;5084158;28;20027;-55
2023/05/31 03:01:46;;;;;;;7.25;4.25;;;18.80;66.00;;;;;;5087164;28;20147;-55
2023/05/31 03:04:12;;;;;;;4.75;3.95;;;18.90;65.90;;;;;;5089300;28;20036;-55
2023/05/31 03:06:39;;;;;;;5.25;4.40;;;18.90;65.90;;;;;;5090032;28;20075;-51
2023/05/31 03:09:06;;;;;;;5.35;3.70;;;18.90;66.10;;;;;;5092153;28;20060;-53
2023/05/31 03:11:32;;;;;;;6.03;4.18;;;18.90;66.10;;;;;;5082253;28;20067;-55
2023/05/31 03:13:58;;;;;;;7.78;4.00;;;19.00;66.30;;;;;;5089358;28;20463;-55
2023/05/31 03:16:24;;;;;;;6.55;4.28;;;19.00;66.30;;;;;;5093215;28;20043;-54
2023/05/31 03:18:50;;;;;;;6.07;4.28;;;19.00;66.20;;;;;;5094371;28;20462;-55
2023/05/31 03:21:17;;;;;;;7.07;4.00;;;19.10;66.40;;;;;;5092131;28;20080;-55
2023/05/31 03:23:42;;;;;;;5.82;4.18;;;19.20;66.60;;;;;;5092316;28;20036;-56
2023/05/31 03:26:08;;;;;;;5.05;4.32;;;19.30;67.50;;;;;;5092519;28;20039;-53
2023/05/31 03:28:34;;;;;;;5.03;3.70;;;19.40;67.00;;;;;;5093071;28;20043;-55
2023/05/31 03:30:59;;;;;;;7.38;4.28;;;19.50;67.30;;;;;;5091873;28;20042;-53
2023/05/31 03:33:25;;;;;;;5.32;4.20;;;19.80;67.30;;;;;;5092561;28;20024;-55
2023/05/31 03:35:51;;;;;;;6.28;4.20;;;20.00;67.00;;;;;;5091468;28;20046;-55
2023/05/31 03:38:16;;;;;;;5.88;4.18;;;20.40;66.60;;;;;;5092442;28;20463;-55
2023/05/31 03:40:42;;;;;;;6.18;4.30;;;20.80;66.00;;;;;;5086762;28;20414;-56
2023/05/31 03:43:08;;;;;;;4.80;3.95;;;21.20;65.10;;;;;;5090500;28;20117;-53
2023/05/31 03:45:33;;;;;;;6.47;4.40;;;21.80;64.20;;;;;;5090727;28;20634;-55
2023/05/31 03:47:59;;;;;;;6.00;3.75;;;22.40;62.90;;;;;;5085760;28;20035;-54
2023/05/31 03:50:25;;;;;;;6.20;3.97;;;23.10;62.40;;;;;;5090816;28;20032;-55
2023/05/31 03:52:51;;;;;;;4.75;3.92;;;23.80;60.50;;;;;;5090509;28;20119;-54
2023/05/31 03:55:16;;;;;;;4.88;3.78;;;24.40;59.40;;;;;;5086865;28;20094;-53
2023/05/31 03:57:42;;;;;;;7.03;4.35;;;25.00;58.30;;;;;;5091001;28;20497;-55
2023/05/31 04:00:11;;;;;;;5.53;3.70;;;25.50;57.40;;;;;;5091447;28;20032;-56
2023/05/31 04:02:37;;;;;;;5.15;3.70;;;26.10;56.50;;;;;;5092039;28;20051;-56
2023/05/31 04:05:04;;;;;;;5.90;3.72;;;26.60;55.70;;;;;;5091820;28;20084;-56
2023/05/31 04:07:31;;;;;;;4.88;3.70;;;27.10;54.90;;;;;;5091215;28;20043;-54
2023/05/31 04:09:56;;;;;;;4.80;3.88;;;27.60;53.90;;;;;;5091592;28;20111;-57
2023/05/31 04:12:22;;;;;;;5.93;3.50;;;28.10;53.10;;;;;;5092152;28;20162;-55
2023/05/31 04:14:47;;;;;;;4.10;3.55;;;28.50;52.50;;;;;;5091807;28;20023;-56
2023/05/31 04:17:13;;;;;;;4.88;3.65;;;29.00;51.80;;;;;;5090090;28;21001;-54
2023/05/31 04:19:39;;;;;;;5.35;3.80;;;29.40;51.30;;;;;;5092116;28;20023;-57
2023/05/31 04:22:04;;;;;;;4.72;3.67;;;29.80;50.70;;;;;;5091271;28;20036;-55
2023/05/31 04:24:30;;;;;;;5.70;3.60;;;30.10;50.00;;;;;;5089594;28;20038;-54
2023/05/31 04:26:56;;;;;;;6.57;4.00;;;30.50;49.50;;;;;;5091485;28;20441;-51
2023/05/31 04:29:22;;;;;;;6.90;3.78;;;30.80;48.90;;;;;;5091787;28;20042;-55
2023/05/31 04:31:48;;;;;;;6.57;3.60;;;31.10;48.40;;;;;;5090848;28;20031;-55
2023/05/31 04:34:18;;;;;;;5.47;3.80;;;31.30;47.70;;;;;;5088695;28;20107;-56
2023/05/31 04:36:48;;;;;;;5.15;3.83;;;31.60;47.70;;;;;;5088871;28;20812;-56
2023/05/31 04:39:15;;;;;;;5.97;4.03;;;31.70;47.10;;;;;;5090703;28;20511;-56
2023/05/31 04:41:42;;;;;;;5.40;3.80;;;32.00;47.00;;;;;;5090256;28;20052;-53
2023/05/31 04:44:07;;;;;;;6.38;3.47;;;32.20;46.50;;;;;;5091690;28;20028;-56
2023/05/31 04:46:33;;;;;;;5.10;3.80;;;32.40;46.20;;;;;;5090831;28;20070;-55
2023/05/31 04:49:00;;;;;;;4.85;3.75;;;32.60;45.90;;;;;;5089565;28;20051;-57
2023/05/31 04:51:26;;;;;;;5.50;3.70;;;32.80;45.80;;;;;;5086826;28;20027;-53
2023/05/31 04:53:52;;;;;;;5.75;4.10;;;32.90;45.30;;;;;;5080283;28;20032;-57
2023/05/31 04:56:18;;;;;;;5.75;3.65;;;33.10;45.30;;;;;;5088181;28;20035;-57
2023/05/31 04:58:45;;;;;;;6.97;3.90;;;33.20;45.30;;;;;;5089078;28;20103;-55
2023/05/31 05:01:14;;;;;;;5.18;4.13;;;33.40;45.10;;;;;;5089686;28;20104;-54
2023/05/31 05:03:40;;;;;;;4.05;3.38;;;33.50;44.70;;;;;;5086943;28;20024;-56
2023/05/31 05:06:16;;;;;;;5.00;3.50;;;33.60;44.50;;;;;;5090994;28;20093;-53
2023/05/31 05:08:43;;;;;;;5.32;3.88;;;33.70;44.30;;;;;;5087428;28;20036;-55
2023/05/31 05:11:14;;;;;;;3.53;3.22;;;33.70;44.10;;;;;;5089257;28;20028;-55
2023/05/31 05:13:40;;;;;;;8.25;3.60;;;33.80;44.10;;;;;;5081167;28;20027;-55
2023/05/31 05:16:06;;;;;;;5.97;3.92;;;33.80;43.80;;;;;;5083960;28;20033;-55
2023/05/31 05:18:31;;;;;;;4.00;3.40;;;33.90;43.20;;;;;;5085615;28;20028;-56
2023/05/31 05:20:57;;;;;;;6.53;3.72;;;33.80;43.00;;;;;;5087894;28;20028;-56
2023/05/31 05:23:23;;;;;;;4.97;3.80;;;33.40;43.00;;;;;;5088492;28;20065;-56
2023/05/31 05:25:50;;;;;;;4.70;3.30;;;32.70;43.40;;;;;;5087117;28;20085;-56
2023/05/31 05:28:15;;;;;;;4.82;3.75;;;32.00;43.50;;;;;;5076969;28;20020;-56
2023/05/31 05:30:41;;;;;;;5.53;4.07;;;31.20;43.90;;;;;;5082122;28;20032;-54
2023/05/31 05:33:07;;;;;;;6.90;3.80;;;30.40;44.50;;;;;;5080472;28;20023;-56
2023/05/31 05:35:33;;;;;;;5.95;3.80;;;29.60;45.10;;;;;;5081855;28;20105;-56
2023/05/31 05:37:59;;;;;;;6.85;3.75;;;28.90;45.70;;;;;;5081618;28;20036;-57
2023/05/31 05:40:25;;;;;;;5.20;4.18;;;28.30;46.30;;;;;;5078974;28;20517;-57
2023/05/31 05:42:53;;;;;;;5.32;4.00;;;27.80;47.00;;;;;;5083161;28;20032;-55
2023/05/31 05:45:18;;;;;;;5.80;4.00;;;27.40;47.60;;;;;;5082415;28;20035;-57
2023/05/31 05:47:45;;;;;;;6.05;3.72;;;27.00;47.90;;;;;;5078835;28;20092;-56
2023/05/31 05:50:11;;;;;;;6.97;4.20;;;26.70;48.20;;;;;;5082523;28;20050;-57
2023/05/31 05:52:37;;;;;;;6.45;4.63;;;26.50;48.50;;;;;;5081151;28;20074;-53
2023/05/31 05:55:03;;;;;;;5.43;3.83;;;26.30;48.90;;;;;;5084295;28;20471;-56
2023/05/31 05:57:30;;;;;;;5.72;4.13;;;26.10;49.00;;;;;;5080386;28;20525;-55
2023/05/31 05:59:56;;;;;;;7.75;4.25;;;25.90;49.40;;;;;;5072745;28;20111;-54
2023/05/31 06:02:22;;;;;;;4.97;3.72;;;25.80;49.40;;;;;;5073343;28;20066;-55
2023/05/31 06:04:49;;;;;;;5.90;3.75;;;25.60;49.50;;;;;;5079615;28;20020;-55
2023/05/31 06:07:16;;;;;;;7.13;4.15;;;25.50;49.70;;;;;;5075821;28;20115;-53
2023/05/31 06:09:42;;;;;;;6.05;3.90;;;25.40;50.10;;;;;;5081968;28;20034;-56
2023/05/31 06:12:08;;;;;;;5.78;4.00;;;25.40;50.50;;;;;;5084584;28;20036;-54
2023/05/31 06:14:33;;;;;;;5.55;3.95;;;25.20;50.80;;;;;;5079623;28;20024;-55
2023/05/31 06:16:59;;;;;;;7.07;3.95;;;25.20;51.20;;;;;;5081445;28;20030;-55
2023/05/31 06:19:25;;;;;;;5.55;4.40;;;25.10;51.40;;;;;;5083399;28;20024;-56
2023/05/31 06:21:51;;;;;;;5.50;4.10;;;25.10;51.50;;;;;;5077819;28;20036;-56
2023/05/31 06:24:17;;;;;;;5.20;4.05;;;25.00;51.80;;;;;;5074548;28;20028;-54
2023/05/31 06:26:43;;;;;;;10.40;4.22;;;25.00;52.10;;;;;;5069459;28;20112;-55
2023/05/31 06:29:09;;;;;;;5.05;3.95;;;25.00;51.80;;;;;;5079758;28;20031;-56
2023/05/31 06:31:35;;;;;;;6.80;4.13;;;24.90;52.20;;;;;;5077246;28;20114;-53
2023/05/31 06:34:02;;;;;;;5.20;3.70;;;24.90;52.10;;;;;;5077488;28;20451;-54
2023/05/31 06:36:28;;;;;;;4.60;3.63;;;24.90;52.50;;;;;;5080686;28;20032;-54
2023/05/31 06:38:54;;;;;;;5.35;3.97;;;24.90;52.20;;;;;;5074585;28;20039;-53
2023/05/31 06:41:20;;;;;;;4.75;4.07;;;24.90;52.30;;;;;;5077089;28;20052;-56
2023/05/31 06:43:46;;;;;;;4.72;3.80;;;24.90;52.90;;;;;;5077973;28;20032;-57
2023/05/31 06:46:12;;;;;;;6.78;4.30;;;24.80;52.50;;;;;;5091769;28;20043;-55
2023/05/31 06:48:38;;;;;;;7.18;4.05;;;24.90;52.60;;;;;;5076743;28;20032;-56
2023/05/31 06:51:04;;;;;;;7.80;3.80;;;24.90;52.70;;;;;;5078470;28;20046;-52
2023/05/31 06:53:30;;;;;;;6.28;3.97;;;24.90;52.90;;;;;;5076358;28;20051;-57
2023/05/31 06:55:56;;;;;;;4.68;3.70;;;24.80;53.00;;;;;;5075538;28;20403;-50
2023/05/31 06:58:21;;;;;;;6.68;4.07;;;24.80;53.10;;;;;;5073483;28;20039;-55
2023/05/31 07:00:47;;;;;;;5.47;4.43;;;24.80;53.00;;;;;;5063815;28;20032;-54
2023/05/31 07:03:13;;;;;;;5.22;3.90;;;24.90;53.20;;;;;;5077010;28;20031;-54
2023/05/31 07:05:42;;;;;;;5.22;3.65;;;24.90;53.40;;;;;;5068597;28;20123;-54
2023/05/31 07:08:07;;;;;;;5.03;4.15;;;24.90;53.30;;;;;;5063038;28;22073;-56
2023/05/31 07:10:33;;;;;;;5.00;3.95;;;24.90;53.10;;;;;;5066031;28;20020;-55
2023/05/31 07:12:59;;;;;;;6.15;4.10;;;24.90;53.20;;;;;;5071686;28;20032;-54
2023/05/31 07:15:25;;;;;;;5.60;4.10;;;24.90;53.20;;;;;;5066566;28;20086;-53
2023/05/31 07:17:51;;;;;;;7.53;4.00;;;24.90;53.20;;;;;;5067974;28;20554;-52
2023/05/31 07:20:16;;;;;;;5.22;3.70;;;25.00;52.90;;;;;;5069975;28;20082;-54
2023/05/31 07:22:42;;;;;;;7.10;4.18;;;25.00;53.00;;;;;;5069621;28;20035;-56
2023/05/31 07:25:08;;;;;;;5.32;3.60;;;25.00;52.90;;;;;;5073654;28;20046;-54
2023/05/31 07:27:34;;;;;;;6.00;3.67;;;25.00;53.30;;;;;;5072402;28;20059;-54
2023/05/31 07:29:59;;;;;;;4.40;3.58;;;25.00;53.00;;;;;;5069581;28;20039;-57
2023/05/31 07:32:25;;;;;;;5.85;3.70;;;25.10;53.10;;;;;;5061393;28;20028;-57
2023/05/31 07:34:51;;;;;;;5.57;3.97;;;25.10;52.90;;;;;;5076273;28;20400;-58
2023/05/31 07:37:16;;;;;;;4.50;3.30;;;25.10;52.90;;;;;;5074173;28;20020;-55
2023/05/31 07:39:44;;;;;;;5.97;3.90;;;25.10;52.80;;;;;;5070663;28;20549;-56
2023/05/31 07:42:09;;;;;;;5.05;3.30;;;25.20;52.60;;;;;;5077295;28;20083;-57
2023/05/31 07:44:35;;;;;;;4.68;3.65;;;25.20;52.60;;;;;;5075445;28;21743;-54
2023/05/31 07:47:01;;;;;;;3.83;3.30;;;25.20;52.40;;;;;;5067341;28;20536;-52
2023/05/31 07:49:26;;;;;;;4.97;3.20;;;25.20;52.30;;;;;;5071328;28;20100;-53
2023/05/31 07:51:52;;;;;;;4.40;3.28;;;25.20;52.10;;;;;;5065169;28;20105;-53
2023/05/31 07:54:18;;;;;;;5.57;3.35;;;25.20;52.00;;;;;;5064845;28;20859;-55
2023/05/31 07:56:44;;;;;;;4.82;3.00;;;25.30;51.80;;;;;;5063582;28;20031;-50
2023/05/31 07:59:09;;;;;;;6.80;3.10;;;25.30;51.40;;;;;;5059704;28;20028;-53
2023/05/31 08:01:35;;;;;;;3.67;3.10;;;25.30;51.00;;;;;;5061978;28;20086;-54
2023/05/31 08:04:08;;;;;;;5.03;3.30;;;25.40;50.80;;;;;;5064207;28;20740;-53
2023/05/31 08:06:33;;;;;;;4.55;2.92;;;25.40;50.60;;;;;;5062142;28;20107;-53
2023/05/31 08:09:00;;;;;;;216.07;33.00;;;25.30;50.80;;;;;;5069909;28;20120;-53
2023/05/31 08:11:27;;;;;;;8.13;4.35;;;25.40;50.90;;;;;;5069823;28;20032;-54
2023/05/31 08:13:53;;;;;;;8.52;3.60;;;25.40;50.70;;;;;;5072125;28;20024;-53
2023/05/31 08:16:18;;;;;;;19.65;6.30;;;25.40;50.40;;;;;;5064294;28;20082;-53
2023/05/31 08:18:45;;;;;;;4.43;3.28;;;25.40;50.50;;;;;;5059332;28;20020;-52
2023/05/31 08:21:11;;;;;;;4.93;3.35;;;25.40;50.40;;;;;;5052791;28;20032;-49
2023/05/31 08:23:37;;;;;;;4.63;3.15;;;25.40;50.40;;;;;;5058008;28;20031;-54
2023/05/31 08:26:02;;;;;;;4.45;2.97;;;25.40;50.20;;;;;;5071036;28;20036;-54
2023/05/31 08:28:30;;;;;;;4.25;3.22;;;25.30;50.00;;;;;;5069570;28;20058;-54
2023/05/31 08:30:56;;;;;;;6.80;3.25;;;25.30;49.90;;;;;;5063555;28;21615;-54
2023/05/31 08:33:21;;;;;;;4.90;3.70;;;25.30;50.20;;;;;;5067387;28;20131;-53
2023/05/31 08:35:47;;;;;;;5.53;2.97;;;25.20;50.20;;;;;;5066805;28;20017;-54
2023/05/31 08:38:13;;;;;;;3.75;3.08;;;25.20;50.00;;;;;;5067879;28;20134;-53
2023/05/31 08:40:39;;;;;;;4.93;3.28;;;25.20;49.90;;;;;;5066750;28;20043;-50
2023/05/31 08:43:20;;;;;;;4.55;3.17;;;25.20;50.10;;;;;;5062459;28;20122;-54
2023/05/31 08:45:49;;;;;;;4.43;3.30;;;25.20;50.20;;;;;;5058789;28;20064;-49
2023/05/31 08:48:28;;;;;;;4.80;3.30;;;25.20;50.60;;;;;;5063858;28;20032;-53
2023/05/31 08:50:55;;;;;;;4.50;3.33;;;25.20;51.00;;;;;;5068905;28;20028;-51
2023/05/31 08:53:24;;;;;;;5.70;3.60;;;25.10;50.40;;;;;;5071393;28;20029;-50
2023/05/31 08:55:51;;;;;;;4.75;3.33;;;25.10;50.50;;;;;;5063798;28;20032;-50
2023/05/31 08:58:18;;;;;;;3.85;3.17;;;25.10;50.40;;;;;;5061873;28;20032;-51
2023/05/31 09:00:45;;;;;;;4.88;3.35;;;25.00;50.30;;;;;;5061234;28;20028;-53
2023/05/31 09:03:10;;;;;;;5.25;3.63;;;25.00;50.00;;;;;;5069822;28;21563;-52
2023/05/31 09:05:36;;;;;;;6.97;3.58;;;25.00;50.20;;;;;;5061416;28;20028;-52
2023/05/31 09:08:02;;;;;;;4.57;3.40;;;25.00;50.40;;;;;;5064535;28;20108;-53
2023/05/31 09:10:29;;;;;;;9.63;3.92;;;25.00;50.50;;;;;;5065824;28;20136;-54
2023/05/31 09:12:55;;;;;;;6.35;3.95;;;24.90;50.90;;;;;;5066434;28;20080;-55
2023/05/31 09:15:23;;;;;;;6.68;3.40;;;24.90;50.90;;;;;;5066840;28;20086;-52
2023/05/31 09:17:49;;;;;;;3.60;3.17;;;24.90;50.80;;;;;;5069715;28;20437;-52
2023/05/31 09:20:16;;;;;;;4.75;3.50;;;24.80;50.80;;;;;;5067184;28;20054;-51
2023/05/31 09:22:42;;;;;;;5.50;3.67;;;24.80;50.70;;;;;;5068913;28;20059;-52
2023/05/31 09:25:08;;;;;;;6.50;4.22;;;24.80;51.00;;;;;;5067265;28;20162;-54
2023/05/31 09:27:38;;;;;;;7.00;4.20;;;24.80;51.30;;;;;;5068487;28;20055;-56
2023/05/31 09:30:05;;;;;;;6.88;4.10;;;24.70;51.70;;;;;;5059396;28;20024;-54
2023/05/31 09:32:33;;;;;;;5.65;3.90;;;24.70;52.10;;;;;;5060131;28;20476;-53
2023/05/31 09:35:16;;;;;;;4.35;3.95;;;24.60;52.50;;;;;;5068420;28;20016;-52
2023/05/31 09:37:47;;;;;;;6.57;4.00;;;24.60;52.70;;;;;;5072888;28;20393;-48
2023/05/31 09:40:13;;;;;;;6.28;4.43;;;24.50;52.90;;;;;;5063438;28;20059;-50
2023/05/31 09:42:48;;;;;;;5.72;4.50;;;24.50;53.20;;;;;;5063918;28;20085;-55
2023/05/31 09:45:14;;;;;;;8.18;4.90;;;24.50;53.10;;;;;;5052133;28;20035;-52
2023/05/31 09:47:40;;;;;;;8.90;5.38;;;24.40;52.90;;;;;;5054655;28;20038;-50
2023/05/31 09:50:10;;;;;;;7.57;5.40;;;24.30;53.10;;;;;;5063355;28;20547;-52
2023/05/31 09:52:40;;;;;;;7.97;5.47;;;24.30;53.70;;;;;;5061134;28;20476;-51
2023/05/31 09:55:12;;;;;;;6.88;5.22;;;24.20;53.70;;;;;;5067080;28;20032;-52
2023/05/31 09:57:43;;;;;;;5.95;4.90;;;24.10;53.60;;;;;;5069980;28;20055;-53
2023/05/31 10:00:20;;;;;;;6.53;4.78;;;24.10;54.00;;;;;;5068186;28;20071;-54
2023/05/31 10:02:51;;;;;;;7.43;4.47;;;24.10;54.00;;;;;;5070958;28;20653;-53
2023/05/31 10:05:17;;;;;;;5.28;4.47;;;24.00;54.30;;;;;;5066691;28;20039;-55
2023/05/31 10:07:46;;;;;;;7.43;4.78;;;24.00;54.00;;;;;;5065284;28;20092;-50
2023/05/31 10:10:12;;;;;;;7.07;4.75;;;24.00;54.20;;;;;;5067482;28;20599;-52
2023/05/31 10:13:08;;;;;;;8.73;4.38;;;24.00;54.60;;;;;;5065331;28;20512;-54
2023/05/31 10:15:36;;;;;;;7.18;4.63;;;24.00;54.40;;;;;;5050857;28;20040;-55
2023/05/31 10:18:11;;;;;;;7.93;5.00;;;23.90;54.40;;;;;;5071663;28;20020;-52
2023/05/31 10:20:58;;;;;;;6.32;4.50;;;24.00;54.40;;;;;;5061885;28;20039;-52
2023/05/31 10:23:24;;;;;;;6.80;4.20;;;23.90;54.30;;;;;;5065913;28;20020;-51
2023/05/31 10:26:13;;;;;;;7.70;4.50;;;23.90;54.30;;;;;;5067258;28;20024;-50
2023/05/31 10:29:15;;;;;;;4.70;3.88;;;23.90;54.20;;;;;;5063181;28;20023;-51
2023/05/31 10:31:46;;;;;;;5.70;4.28;;;24.00;54.00;;;;;;5063095;28;20915;-53
2023/05/31 10:34:20;;;;;;;5.70;4.18;;;24.00;54.20;;;;;;5065864;28;20028;-53
2023/05/31 10:36:47;;;;;;;5.88;4.75;;;24.00;54.10;;;;;;5061051;28;20032;-51
2023/05/31 10:39:31;;;;;;;6.97;4.40;;;24.00;54.10;;;;;;5063298;28;20073;-54
2023/05/31 10:42:25;;;;;;;6.43;4.07;;;24.00;54.10;;;;;;5064919;28;20052;-54
2023/05/31 10:45:12;;;;;;;7.22;4.60;;;24.10;54.10;;;;;;5063856;28;20759;-53
2023/05/31 10:47:56;;;;;;;5.63;4.20;;;24.10;54.30;;;;;;5060080;28;20040;-54
2023/05/31 10:50:24;;;;;;;5.43;3.80;;;24.10;54.60;;;;;;5052868;28;20028;-51
2023/05/31 10:53:08;;;;;;;4.72;4.10;;;24.20;54.30;;;;;;5058914;28;20039;-51
2023/05/31 10:55:42;;;;;;;4.85;3.35;;;24.20;54.30;;;;;;5058429;28;20139;-54
2023/05/31 10:58:30;;;;;;;11.60;3.88;;;24.30;53.90;;;;;;5057300;28;20036;-52
2023/05/31 11:01:02;;;;;;;5.22;3.80;;;24.20;54.00;;;;;;5042612;28;20028;-56
2023/05/31 11:03:29;;;;;;;5.70;3.53;;;24.30;53.90;;;;;;5045127;28;20035;-52
2023/05/31 11:05:59;;;;;;;3.55;3.17;;;24.30;53.80;;;;;;5059690;28;20150;-54
2023/05/31 11:08:26;;;;;;;6.55;3.25;;;24.30;53.40;;;;;;5061323;28;20028;-55
2023/05/31 11:10:52;;;;;;;6.05;3.50;;;24.30;53.60;;;;;;5066156;28;20141;-53
2023/05/31 11:13:18;;;;;;;4.43;3.35;;;24.40;53.70;;;;;;5071379;28;20032;-54
2023/05/31 11:15:45;;;;;;;4.78;3.30;;;24.40;53.20;;;;;;5058389;28;20539;-53
2023/05/31 11:18:21;;;;;;;5.95;3.35;;;24.40;53.00;;;;;;5059399;28;20035;-54
2023/05/31 11:20:47;;;;;;;6.35;3.28;;;24.40;52.20;;;;;;5061157;28;20024;-53
2023/05/31 11:23:19;;;;;;;6.13;3.65;;;24.40;51.90;;;;;;5061336;28;20093;-56
2023/05/31 11:26:30;;;;;;;5.72;3.92;;;24.40;52.00;;;;;;5058900;28;21016;-59
2023/05/31 11:29:00;;;;;;;5.75;3.40;;;24.40;52.10;;;;;;5053997;28;20113;-56
2023/05/31 11:31:48;;;;;;;6.63;3.10;;;24.30;51.60;;;;;;5056929;28;20036;-56
2023/05/31 11:34:33;;;;;;;5.40;3.47;;;24.40;51.90;;;;;;5063496;28;20031;-56
2023/05/31 11:37:03;;;;;;;6.95;3.50;;;24.30;51.70;;;;;;5063364;28;20028;-57
2023/05/31 11:39:29;;;;;;;;;;;24.30;51.30;;;;;;5062224;28;20031;-56
2023/05/31 11:41:56;;;;;;;5.90;3.22;;;24.30;51.70;;;;;;5060379;28;19920;-56
2023/05/31 11:44:30;;;;;;;4.97;3.22;;;24.30;51.50;;;;;;5068142;28;21203;-54
2023/05/31 11:47:05;;;;;;;6.43;3.42;;;24.30;52.30;;;;;;5057276;28;20659;-52
2023/05/31 11:49:33;;;;;;;5.28;3.15;;;24.30;52.20;;;;;;5059560;28;20063;-56
2023/05/31 11:51:59;;;;;;;4.90;3.33;;;24.30;52.20;;;;;;5047961;28;20040;-53
2023/05/31 11:54:29;;;;;;;4.32;3.20;;;24.30;52.70;;;;;;5033234;28;20039;-55
2023/05/31 11:56:58;;;;;;;3.83;3.00;;;24.30;52.10;;;;;;5044565;28;20039;-54
2023/05/31 11:59:27;;;;;;;7.28;3.50;;;24.20;52.60;;;;;;5050261;28;20036;-54
2023/05/31 12:01:58;;;;;;;4.88;3.30;;;24.30;53.10;;;;;;5036570;28;20044;-50
2023/05/31 12:04:31;;;;;;;4.57;3.30;;;24.30;53.20;;;;;;5067304;28;20569;-56
2023/05/31 12:06:57;;;;;;;5.38;3.30;;;24.30;52.70;;;;;;5066382;28;20784;-56
2023/05/31 12:09:27;;;;;;;4.05;3.40;;;24.30;52.70;;;;;;5069164;28;20036;-54
2023/05/31 12:11:54;;;;;;;5.72;3.88;;;24.30;52.90;;;;;;5075349;28;20089;-56
2023/05/31 12:14:20;;;;;;;7.47;3.90;;;24.30;53.20;;;;;;5070466;28;20082;-53
2023/05/31 12:16:49;;;;;;;6.88;3.83;;;24.40;53.00;;;;;;5071394;28;20029;-53
2023/05/31 12:19:15;;;;;;;5.32;3.58;;;24.40;53.00;;;;;;5070258;28;20032;-55
2023/05/31 12:21:41;;;;;;;5.43;3.38;;;24.40;53.30;;;;;;5063285;28;20032;-52
2023/05/31 12:24:17;;;;;;;5.82;3.08;;;24.40;52.60;;;;;;5060704;28;20480;-55
2023/05/31 12:26:51;;;;;;;5.53;3.50;;;24.40;52.30;;;;;;5075105;28;20040;-53
2023/05/31 12:29:17;;;;;;;5.28;3.30;;;24.40;52.20;;;;;;5057500;28;20031;-54
2023/05/31 12:31:45;;;;;;;4.25;3.38;;;24.40;52.20;;;;;;5062085;28;20044;-52
2023/05/31 12:34:13;;;;;;;4.15;2.95;;;24.40;52.30;;;;;;5064641;28;20043;-56
2023/05/31 12:36:46;;;;;;;4.05;2.78;;;24.30;52.40;;;;;;5068970;28;20081;-54
2023/05/31 12:39:13;;;;;;;4.95;3.00;;;24.40;51.70;;;;;;5069510;28;20036;-54
2023/05/31 12:41:43;;;;;;;5.50;3.20;;;24.30;51.90;;;;;;5066767;28;20127;-52
2023/05/31 12:44:11;;;;;;;5.32;3.17;;;24.30;51.90;;;;;;5057909;28;20394;-55
2023/05/31 12:46:38;;;;;;;5.45;3.35;;;24.20;52.20;;;;;;5061247;28;20025;-54
2023/05/31 12:49:21;;;;;;;3.90;3.20;;;24.10;52.20;;;;;;5062481;28;20032;-55
2023/05/31 12:51:48;;;;;;;5.70;3.10;;;24.10;52.10;;;;;;5060036;28;20032;-58
2023/05/31 12:54:16;;;;;;;4.15;2.80;;;24.00;51.80;;;;;;5076043;28;20034;-56